sensor_id;sensor_type;location;lat;lon;timestamp;P1;durP1;ratioP1;P2;durP2;ratioP2
22415;SDS011;12204;50.600;4.608;2022-12-18T00:03:17;20.80;;;10.65;;
22415;SDS011;12204;50.600;4.608;2022-12-18T00:08:20;23.63;;;11.32;;
22415;SDS011;12204;50.600;4.608;2022-12-18T00:13:24;23.58;;;11.40;;
22415;SDS011;12204;50.600;4.608;2022-12-18T00:18:29;28.17;;;11.88;;
22415;SDS011;12204;50.600;4.608;2022-12-18T00:23:34;27.38;;;12.23;;
22415;SDS011;12204;50.600;4.608;2022-12-18T00:28:40;23.30;;;11.57;;
22415;SDS011;12204;50.600;4.608;2022-12-18T00:33:45;28.95;;;12.50;;
22415;SDS011;12204;50.600;4.608;2022-12-18T00:38:55;27.20;;;11.93;;
22415;SDS011;12204;50.600;4.608;2022-12-18T00:44:01;22.67;;;11.38;;
22415;SDS011;12204;50.600;4.608;2022-12-18T00:49:09;27.23;;;11.70;;
22415;SDS011;12204;50.600;4.608;2022-12-18T00:54:17;26.13;;;11.30;;
22415;SDS011;12204;50.600;4.608;2022-12-18T00:59:20;25.38;;;11.43;;
22415;SDS011;12204;50.600;4.608;2022-12-18T01:04:26;24.30;;;11.05;;
22415;SDS011;12204;50.600;4.608;2022-12-18T01:09:30;19.80;;;10.05;;
22415;SDS011;12204;50.600;4.608;2022-12-18T01:14:33;23.95;;;10.23;;
22415;SDS011;12204;50.600;4.608;2022-12-18T01:19:38;23.45;;;10.10;;
22415;SDS011;12204;50.600;4.608;2022-12-18T01:24:44;20.70;;;9.88;;
22415;SDS011;12204;50.600;4.608;2022-12-18T01:29:48;20.10;;;8.77;;
22415;SDS011;12204;50.600;4.608;2022-12-18T01:34:54;20.15;;;9.15;;
22415;SDS011;12204;50.600;4.608;2022-12-18T01:40:00;17.80;;;8.70;;
22415;SDS011;12204;50.600;4.608;2022-12-18T01:45:05;17.02;;;8.30;;
22415;SDS011;12204;50.600;4.608;2022-12-18T01:50:28;18.48;;;8.35;;
22415;SDS011;12204;50.600;4.608;2022-12-18T01:55:39;18.40;;;8.07;;
22415;SDS011;12204;50.600;4.608;2022-12-18T02:00:51;17.17;;;8.20;;
22415;SDS011;12204;50.600;4.608;2022-12-18T02:05:57;15.07;;;7.72;;
22415;SDS011;12204;50.600;4.608;2022-12-18T02:11:13;15.20;;;7.77;;
22415;SDS011;12204;50.600;4.608;2022-12-18T02:16:33;14.20;;;7.03;;
22415;SDS011;12204;50.600;4.608;2022-12-18T02:21:49;13.93;;;6.93;;
22415;SDS011;12204;50.600;4.608;2022-12-18T02:27:03;13.38;;;6.57;;
22415;SDS011;12204;50.600;4.608;2022-12-18T02:32:11;14.85;;;6.85;;
22415;SDS011;12204;50.600;4.608;2022-12-18T02:37:20;13.13;;;6.72;;
22415;SDS011;12204;50.600;4.608;2022-12-18T02:42:28;12.90;;;6.63;;
22415;SDS011;12204;50.600;4.608;2022-12-18T02:47:34;13.57;;;6.80;;
22415;SDS011;12204;50.600;4.608;2022-12-18T02:52:48;12.50;;;6.38;;
22415;SDS011;12204;50.600;4.608;2022-12-18T02:58:08;12.90;;;6.18;;
22415;SDS011;12204;50.600;4.608;2022-12-18T03:03:24;12.90;;;6.20;;
22415;SDS011;12204;50.600;4.608;2022-12-18T03:08:35;12.35;;;5.97;;
22415;SDS011;12204;50.600;4.608;2022-12-18T03:13:46;11.07;;;5.82;;
22415;SDS011;12204;50.600;4.608;2022-12-18T03:18:55;11.55;;;5.50;;
22415;SDS011;12204;50.600;4.608;2022-12-18T03:24:06;10.80;;;5.57;;
22415;SDS011;12204;50.600;4.608;2022-12-18T03:29:14;9.57;;;5.13;;
22415;SDS011;12204;50.600;4.608;2022-12-18T03:34:26;9.98;;;5.18;;
22415;SDS011;12204;50.600;4.608;2022-12-18T03:39:37;10.40;;;4.90;;
22415;SDS011;12204;50.600;4.608;2022-12-18T03:44:43;10.30;;;4.90;;
22415;SDS011;12204;50.600;4.608;2022-12-18T03:50:02;10.52;;;4.90;;
22415;SDS011;12204;50.600;4.608;2022-12-18T03:55:19;11.63;;;5.13;;
22415;SDS011;12204;50.600;4.608;2022-12-18T04:00:33;10.18;;;5.03;;
22415;SDS011;12204;50.600;4.608;2022-12-18T04:05:43;10.32;;;4.80;;
22415;SDS011;12204;50.600;4.608;2022-12-18T04:10:51;12.00;;;4.57;;
22415;SDS011;12204;50.600;4.608;2022-12-18T04:15:57;11.20;;;4.70;;
22415;SDS011;12204;50.600;4.608;2022-12-18T04:21:01;8.60;;;4.57;;
22415;SDS011;12204;50.600;4.608;2022-12-18T04:26:07;7.78;;;4.10;;
22415;SDS011;12204;50.600;4.608;2022-12-18T04:31:35;11.87;;;4.40;;
22415;SDS011;12204;50.600;4.608;2022-12-18T04:36:39;9.60;;;3.83;;
22415;SDS011;12204;50.600;4.608;2022-12-18T04:41:43;7.93;;;3.90;;
22415;SDS011;12204;50.600;4.608;2022-12-18T04:46:49;7.88;;;3.90;;
22415;SDS011;12204;50.600;4.608;2022-12-18T04:51:53;9.45;;;4.00;;
22415;SDS011;12204;50.600;4.608;2022-12-18T04:56:57;7.90;;;3.78;;
22415;SDS011;12204;50.600;4.608;2022-12-18T05:02:01;7.78;;;3.72;;
22415;SDS011;12204;50.600;4.608;2022-12-18T05:07:06;7.13;;;3.58;;
22415;SDS011;12204;50.600;4.608;2022-12-18T05:12:09;8.02;;;3.40;;
22415;SDS011;12204;50.600;4.608;2022-12-18T05:17:14;7.35;;;3.53;;
22415;SDS011;12204;50.600;4.608;2022-12-18T05:22:18;8.20;;;3.80;;
22415;SDS011;12204;50.600;4.608;2022-12-18T05:27:22;7.20;;;3.40;;
22415;SDS011;12204;50.600;4.608;2022-12-18T05:32:27;7.55;;;3.47;;
22415;SDS011;12204;50.600;4.608;2022-12-18T05:37:30;6.90;;;3.42;;
22415;SDS011;12204;50.600;4.608;2022-12-18T05:42:41;6.65;;;3.25;;
22415;SDS011;12204;50.600;4.608;2022-12-18T05:47:46;7.57;;;3.05;;
22415;SDS011;12204;50.600;4.608;2022-12-18T05:52:50;6.53;;;3.08;;
22415;SDS011;12204;50.600;4.608;2022-12-18T05:57:53;6.70;;;3.08;;
22415;SDS011;12204;50.600;4.608;2022-12-18T06:02:58;7.68;;;3.10;;
22415;SDS011;12204;50.600;4.608;2022-12-18T06:08:02;7.07;;;3.10;;
22415;SDS011;12204;50.600;4.608;2022-12-18T06:13:07;10.45;;;3.50;;
22415;SDS011;12204;50.600;4.608;2022-12-18T06:18:12;7.43;;;3.00;;
22415;SDS011;12204;50.600;4.608;2022-12-18T06:23:16;6.20;;;2.83;;
22415;SDS011;12204;50.600;4.608;2022-12-18T06:28:20;7.97;;;2.90;;
22415;SDS011;12204;50.600;4.608;2022-12-18T06:33:26;6.90;;;2.90;;
22415;SDS011;12204;50.600;4.608;2022-12-18T06:38:31;6.20;;;2.73;;
22415;SDS011;12204;50.600;4.608;2022-12-18T06:43:35;7.18;;;2.85;;
22415;SDS011;12204;50.600;4.608;2022-12-18T06:48:41;8.50;;;2.85;;
22415;SDS011;12204;50.600;4.608;2022-12-18T06:53:44;5.70;;;2.53;;
22415;SDS011;12204;50.600;4.608;2022-12-18T06:58:48;6.63;;;2.72;;
22415;SDS011;12204;50.600;4.608;2022-12-18T07:03:55;6.32;;;2.63;;
22415;SDS011;12204;50.600;4.608;2022-12-18T07:09:00;6.45;;;2.80;;
22415;SDS011;12204;50.600;4.608;2022-12-18T07:14:03;6.10;;;2.40;;
22415;SDS011;12204;50.600;4.608;2022-12-18T07:19:09;6.80;;;2.60;;
22415;SDS011;12204;50.600;4.608;2022-12-18T07:24:12;8.52;;;2.90;;
22415;SDS011;12204;50.600;4.608;2022-12-18T07:29:16;5.95;;;2.55;;
22415;SDS011;12204;50.600;4.608;2022-12-18T07:34:21;6.93;;;2.63;;
22415;SDS011;12204;50.600;4.608;2022-12-18T07:39:25;6.25;;;2.60;;
22415;SDS011;12204;50.600;4.608;2022-12-18T07:44:29;6.07;;;2.50;;
22415;SDS011;12204;50.600;4.608;2022-12-18T07:49:33;5.53;;;2.45;;
22415;SDS011;12204;50.600;4.608;2022-12-18T07:54:37;6.28;;;2.72;;
22415;SDS011;12204;50.600;4.608;2022-12-18T07:59:41;5.78;;;2.50;;
22415;SDS011;12204;50.600;4.608;2022-12-18T08:04:46;5.18;;;2.50;;
22415;SDS011;12204;50.600;4.608;2022-12-18T08:09:50;8.57;;;2.45;;
22415;SDS011;12204;50.600;4.608;2022-12-18T08:14:53;6.95;;;2.50;;
22415;SDS011;12204;50.600;4.608;2022-12-18T08:19:58;8.07;;;2.45;;
22415;SDS011;12204;50.600;4.608;2022-12-18T08:25:02;5.75;;;2.30;;
22415;SDS011;12204;50.600;4.608;2022-12-18T08:30:09;5.82;;;2.40;;
22415;SDS011;12204;50.600;4.608;2022-12-18T08:35:16;8.00;;;2.40;;
22415;SDS011;12204;50.600;4.608;2022-12-18T08:40:19;8.38;;;2.30;;
22415;SDS011;12204;50.600;4.608;2022-12-18T08:45:23;11.07;;;2.20;;
22415;SDS011;12204;50.600;4.608;2022-12-18T08:50:29;12.43;;;2.25;;
22415;SDS011;12204;50.600;4.608;2022-12-18T08:55:32;9.00;;;2.10;;
22415;SDS011;12204;50.600;4.608;2022-12-18T09:00:36;6.35;;;2.20;;
22415;SDS011;12204;50.600;4.608;2022-12-18T09:05:41;6.45;;;2.10;;
22415;SDS011;12204;50.600;4.608;2022-12-18T09:10:45;7.72;;;2.42;;
22415;SDS011;12204;50.600;4.608;2022-12-18T09:15:52;21.65;;;4.40;;
22415;SDS011;12204;50.600;4.608;2022-12-18T09:20:59;16.55;;;5.93;;
22415;SDS011;12204;50.600;4.608;2022-12-18T09:26:02;20.45;;;6.22;;
22415;SDS011;12204;50.600;4.608;2022-12-18T09:31:07;22.02;;;6.65;;
22415;SDS011;12204;50.600;4.608;2022-12-18T09:36:15;15.18;;;6.60;;
22415;SDS011;12204;50.600;4.608;2022-12-18T09:41:31;15.25;;;6.72;;
22415;SDS011;12204;50.600;4.608;2022-12-18T09:46:46;14.88;;;6.30;;
22415;SDS011;12204;50.600;4.608;2022-12-18T09:51:59;15.15;;;5.75;;
22415;SDS011;12204;50.600;4.608;2022-12-18T09:57:10;13.90;;;5.68;;
22415;SDS011;12204;50.600;4.608;2022-12-18T10:02:17;11.40;;;5.95;;
22415;SDS011;12204;50.600;4.608;2022-12-18T10:07:27;14.57;;;6.20;;
22415;SDS011;12204;50.600;4.608;2022-12-18T10:12:45;12.98;;;6.18;;
22415;SDS011;12204;50.600;4.608;2022-12-18T10:18:07;14.25;;;6.10;;
22415;SDS011;12204;50.600;4.608;2022-12-18T10:23:32;11.95;;;5.72;;
22415;SDS011;12204;50.600;4.608;2022-12-18T10:28:48;11.63;;;5.65;;
22415;SDS011;12204;50.600;4.608;2022-12-18T10:33:54;13.52;;;5.50;;
22415;SDS011;12204;50.600;4.608;2022-12-18T10:39:04;13.43;;;5.30;;
22415;SDS011;12204;50.600;4.608;2022-12-18T10:44:20;11.32;;;5.10;;
22415;SDS011;12204;50.600;4.608;2022-12-18T10:49:27;11.03;;;5.10;;
22415;SDS011;12204;50.600;4.608;2022-12-18T10:54:36;10.75;;;4.82;;
22415;SDS011;12204;50.600;4.608;2022-12-18T10:59:50;11.38;;;4.85;;
22415;SDS011;12204;50.600;4.608;2022-12-18T11:04:57;11.00;;;4.75;;
22415;SDS011;12204;50.600;4.608;2022-12-18T11:10:03;9.68;;;4.35;;
22415;SDS011;12204;50.600;4.608;2022-12-18T11:15:19;10.02;;;4.70;;
22415;SDS011;12204;50.600;4.608;2022-12-18T11:20:30;13.35;;;5.22;;
22415;SDS011;12204;50.600;4.608;2022-12-18T11:25:39;11.75;;;4.90;;
22415;SDS011;12204;50.600;4.608;2022-12-18T11:36:23;11.30;;;5.10;;
22415;SDS011;12204;50.600;4.608;2022-12-18T11:41:37;10.95;;;4.97;;
22415;SDS011;12204;50.600;4.608;2022-12-18T11:47:21;10.15;;;4.18;;
22415;SDS011;12204;50.600;4.608;2022-12-18T11:52:39;11.82;;;4.25;;
22415;SDS011;12204;50.600;4.608;2022-12-18T11:57:47;10.38;;;4.35;;
22415;SDS011;12204;50.600;4.608;2022-12-18T12:03:07;10.57;;;4.30;;
22415;SDS011;12204;50.600;4.608;2022-12-18T12:08:30;9.45;;;4.15;;
22415;SDS011;12204;50.600;4.608;2022-12-18T12:13:50;9.00;;;4.05;;
22415;SDS011;12204;50.600;4.608;2022-12-18T12:19:15;10.00;;;4.20;;
22415;SDS011;12204;50.600;4.608;2022-12-18T12:24:40;13.40;;;4.67;;
22415;SDS011;12204;50.600;4.608;2022-12-18T12:30:05;10.65;;;4.40;;
22415;SDS011;12204;50.600;4.608;2022-12-18T12:35:19;10.48;;;4.10;;
22415;SDS011;12204;50.600;4.608;2022-12-18T12:40:48;8.65;;;3.95;;
22415;SDS011;12204;50.600;4.608;2022-12-18T12:46:06;9.82;;;4.25;;
22415;SDS011;12204;50.600;4.608;2022-12-18T12:51:14;9.40;;;3.97;;
22415;SDS011;12204;50.600;4.608;2022-12-18T12:56:24;8.90;;;4.00;;
22415;SDS011;12204;50.600;4.608;2022-12-18T13:01:38;10.95;;;4.35;;
22415;SDS011;12204;50.600;4.608;2022-12-18T13:06:59;9.75;;;3.83;;
22415;SDS011;12204;50.600;4.608;2022-12-18T13:12:13;9.07;;;4.13;;
22415;SDS011;12204;50.600;4.608;2022-12-18T13:17:38;9.75;;;4.07;;
22415;SDS011;12204;50.600;4.608;2022-12-18T13:22:43;10.60;;;4.30;;
22415;SDS011;12204;50.600;4.608;2022-12-18T13:27:56;11.05;;;4.90;;
22415;SDS011;12204;50.600;4.608;2022-12-18T13:44:37;15.23;;;6.45;;
22415;SDS011;12204;50.600;4.608;2022-12-18T13:49:45;12.98;;;7.30;;
22415;SDS011;12204;50.600;4.608;2022-12-18T13:54:50;14.45;;;7.07;;
22415;SDS011;12204;50.600;4.608;2022-12-18T13:59:58;41.35;;;9.32;;
22415;SDS011;12204;50.600;4.608;2022-12-18T14:05:29;33.75;;;9.23;;
22415;SDS011;12204;50.600;4.608;2022-12-18T14:10:39;29.67;;;9.13;;
22415;SDS011;12204;50.600;4.608;2022-12-18T14:15:49;25.80;;;8.55;;
22415;SDS011;12204;50.600;4.608;2022-12-18T14:20:56;24.58;;;8.02;;
22415;SDS011;12204;50.600;4.608;2022-12-18T14:26:17;23.75;;;7.57;;
22415;SDS011;12204;50.600;4.608;2022-12-18T14:31:27;24.63;;;6.93;;
22415;SDS011;12204;50.600;4.608;2022-12-18T14:36:34;23.67;;;6.82;;
22415;SDS011;12204;50.600;4.608;2022-12-18T14:41:41;21.95;;;6.75;;
22415;SDS011;12204;50.600;4.608;2022-12-18T14:46:45;23.25;;;6.90;;
22415;SDS011;12204;50.600;4.608;2022-12-18T14:51:52;22.17;;;6.68;;
22415;SDS011;12204;50.600;4.608;2022-12-18T14:56:59;20.25;;;6.43;;
22415;SDS011;12204;50.600;4.608;2022-12-18T15:02:09;19.55;;;6.00;;
22415;SDS011;12204;50.600;4.608;2022-12-18T15:07:23;16.38;;;5.72;;
22415;SDS011;12204;50.600;4.608;2022-12-18T15:12:28;19.27;;;5.30;;
22415;SDS011;12204;50.600;4.608;2022-12-18T15:17:38;17.27;;;5.35;;
22415;SDS011;12204;50.600;4.608;2022-12-18T15:22:43;15.77;;;5.45;;
22415;SDS011;12204;50.600;4.608;2022-12-18T15:27:50;17.20;;;5.22;;
22415;SDS011;12204;50.600;4.608;2022-12-18T15:38:28;19.33;;;5.20;;
22415;SDS011;12204;50.600;4.608;2022-12-18T15:43:32;13.63;;;4.72;;
22415;SDS011;12204;50.600;4.608;2022-12-18T15:48:38;12.50;;;4.93;;
22415;SDS011;12204;50.600;4.608;2022-12-18T15:53:45;14.65;;;4.90;;
22415;SDS011;12204;50.600;4.608;2022-12-18T15:58:50;13.85;;;4.70;;
22415;SDS011;12204;50.600;4.608;2022-12-18T16:03:54;14.40;;;5.10;;
22415;SDS011;12204;50.600;4.608;2022-12-18T16:08:59;11.93;;;4.45;;
22415;SDS011;12204;50.600;4.608;2022-12-18T16:14:04;11.55;;;4.80;;
22415;SDS011;12204;50.600;4.608;2022-12-18T16:19:16;14.93;;;4.88;;
22415;SDS011;12204;50.600;4.608;2022-12-18T16:24:24;13.15;;;4.60;;
22415;SDS011;12204;50.600;4.608;2022-12-18T16:29:31;12.32;;;4.60;;
22415;SDS011;12204;50.600;4.608;2022-12-18T16:34:34;11.48;;;4.10;;
22415;SDS011;12204;50.600;4.608;2022-12-18T16:39:40;11.20;;;4.18;;
22415;SDS011;12204;50.600;4.608;2022-12-18T16:44:45;12.50;;;4.55;;
22415;SDS011;12204;50.600;4.608;2022-12-18T16:49:50;12.55;;;4.13;;
22415;SDS011;12204;50.600;4.608;2022-12-18T16:54:56;12.00;;;4.53;;
22415;SDS011;12204;50.600;4.608;2022-12-18T16:59:59;10.02;;;4.15;;
22415;SDS011;12204;50.600;4.608;2022-12-18T17:05:06;9.18;;;3.85;;
22415;SDS011;12204;50.600;4.608;2022-12-18T17:10:13;9.32;;;3.70;;
22415;SDS011;12204;50.600;4.608;2022-12-18T17:15:17;10.63;;;4.03;;
22415;SDS011;12204;50.600;4.608;2022-12-18T17:20:21;10.82;;;3.92;;
22415;SDS011;12204;50.600;4.608;2022-12-18T17:25:27;10.93;;;4.10;;
22415;SDS011;12204;50.600;4.608;2022-12-18T17:30:30;9.98;;;4.07;;
22415;SDS011;12204;50.600;4.608;2022-12-18T17:35:34;10.85;;;3.90;;
22415;SDS011;12204;50.600;4.608;2022-12-18T17:40:39;7.85;;;3.60;;
22415;SDS011;12204;50.600;4.608;2022-12-18T17:45:46;8.50;;;3.80;;
22415;SDS011;12204;50.600;4.608;2022-12-18T17:50:50;7.55;;;3.40;;
22415;SDS011;12204;50.600;4.608;2022-12-18T17:55:57;8.85;;;3.60;;
22415;SDS011;12204;50.600;4.608;2022-12-18T18:01:03;8.47;;;3.70;;
22415;SDS011;12204;50.600;4.608;2022-12-18T18:06:08;9.95;;;3.63;;
22415;SDS011;12204;50.600;4.608;2022-12-18T18:11:14;10.20;;;3.80;;
22415;SDS011;12204;50.600;4.608;2022-12-18T18:16:40;7.97;;;3.42;;
22415;SDS011;12204;50.600;4.608;2022-12-18T18:21:47;9.43;;;3.73;;
22415;SDS011;12204;50.600;4.608;2022-12-18T18:26:55;7.03;;;3.30;;
22415;SDS011;12204;50.600;4.608;2022-12-18T18:32:02;6.95;;;2.95;;
22415;SDS011;12204;50.600;4.608;2022-12-18T18:37:07;7.93;;;3.33;;
22415;SDS011;12204;50.600;4.608;2022-12-18T18:42:13;8.15;;;3.28;;
22415;SDS011;12204;50.600;4.608;2022-12-18T18:47:17;6.97;;;2.90;;
22415;SDS011;12204;50.600;4.608;2022-12-18T18:52:21;7.38;;;3.03;;
22415;SDS011;12204;50.600;4.608;2022-12-18T18:57:26;7.22;;;3.08;;
22415;SDS011;12204;50.600;4.608;2022-12-18T19:02:31;7.70;;;2.85;;
22415;SDS011;12204;50.600;4.608;2022-12-18T19:07:35;7.00;;;2.88;;
22415;SDS011;12204;50.600;4.608;2022-12-18T19:12:40;7.07;;;3.13;;
22415;SDS011;12204;50.600;4.608;2022-12-18T19:18:01;7.22;;;2.97;;
22415;SDS011;12204;50.600;4.608;2022-12-18T19:23:05;9.00;;;3.08;;
22415;SDS011;12204;50.600;4.608;2022-12-18T19:28:10;8.43;;;3.10;;
22415;SDS011;12204;50.600;4.608;2022-12-18T19:33:22;6.88;;;3.10;;
22415;SDS011;12204;50.600;4.608;2022-12-18T19:38:43;8.02;;;3.20;;
22415;SDS011;12204;50.600;4.608;2022-12-18T19:43:50;6.57;;;2.95;;
22415;SDS011;12204;50.600;4.608;2022-12-18T19:48:54;8.82;;;2.90;;
22415;SDS011;12204;50.600;4.608;2022-12-18T19:53:59;7.95;;;3.08;;
22415;SDS011;12204;50.600;4.608;2022-12-18T19:59:05;6.38;;;3.00;;
22415;SDS011;12204;50.600;4.608;2022-12-18T20:04:09;7.15;;;2.97;;
22415;SDS011;12204;50.600;4.608;2022-12-18T20:09:12;7.40;;;3.13;;
22415;SDS011;12204;50.600;4.608;2022-12-18T20:14:18;9.73;;;3.50;;
22415;SDS011;12204;50.600;4.608;2022-12-18T20:19:25;9.27;;;3.30;;
22415;SDS011;12204;50.600;4.608;2022-12-18T20:24:29;8.15;;;3.95;;
22415;SDS011;12204;50.600;4.608;2022-12-18T20:29:34;9.98;;;3.20;;
22415;SDS011;12204;50.600;4.608;2022-12-18T20:34:38;8.65;;;3.42;;
22415;SDS011;12204;50.600;4.608;2022-12-18T20:39:42;6.75;;;3.20;;
22415;SDS011;12204;50.600;4.608;2022-12-18T20:44:48;6.32;;;2.88;;
22415;SDS011;12204;50.600;4.608;2022-12-18T20:49:51;8.10;;;3.40;;
22415;SDS011;12204;50.600;4.608;2022-12-18T20:54:56;8.38;;;3.30;;
22415;SDS011;12204;50.600;4.608;2022-12-18T21:00:03;7.72;;;3.15;;
22415;SDS011;12204;50.600;4.608;2022-12-18T21:05:10;7.28;;;3.15;;
22415;SDS011;12204;50.600;4.608;2022-12-18T21:10:13;6.60;;;3.20;;
22415;SDS011;12204;50.600;4.608;2022-12-18T21:15:19;7.65;;;3.33;;
22415;SDS011;12204;50.600;4.608;2022-12-18T21:20:29;7.32;;;3.17;;
22415;SDS011;12204;50.600;4.608;2022-12-18T21:25:32;7.70;;;3.10;;
22415;SDS011;12204;50.600;4.608;2022-12-18T21:30:38;8.15;;;3.10;;
22415;SDS011;12204;50.600;4.608;2022-12-18T21:35:41;6.38;;;3.20;;
22415;SDS011;12204;50.600;4.608;2022-12-18T21:40:45;9.02;;;3.50;;
22415;SDS011;12204;50.600;4.608;2022-12-18T21:45:50;10.55;;;3.80;;
22415;SDS011;12204;50.600;4.608;2022-12-18T21:50:56;11.10;;;3.88;;
22415;SDS011;12204;50.600;4.608;2022-12-18T21:55:59;9.82;;;4.15;;
22415;SDS011;12204;50.600;4.608;2022-12-18T22:01:05;9.50;;;4.13;;
22415;SDS011;12204;50.600;4.608;2022-12-18T22:06:08;8.68;;;4.03;;
22415;SDS011;12204;50.600;4.608;2022-12-18T22:11:12;11.32;;;4.40;;
22415;SDS011;12204;50.600;4.608;2022-12-18T22:16:19;10.45;;;4.40;;
22415;SDS011;12204;50.600;4.608;2022-12-18T22:21:24;10.25;;;4.60;;
22415;SDS011;12204;50.600;4.608;2022-12-18T22:26:31;11.77;;;4.73;;
22415;SDS011;12204;50.600;4.608;2022-12-18T22:31:42;11.40;;;4.45;;
22415;SDS011;12204;50.600;4.608;2022-12-18T22:36:46;11.30;;;4.60;;
22415;SDS011;12204;50.600;4.608;2022-12-18T22:41:50;10.50;;;4.32;;
22415;SDS011;12204;50.600;4.608;2022-12-18T22:46:56;12.38;;;4.47;;
22415;SDS011;12204;50.600;4.608;2022-12-18T22:52:07;9.35;;;4.40;;
22415;SDS011;12204;50.600;4.608;2022-12-18T22:57:13;9.63;;;4.10;;
22415;SDS011;12204;50.600;4.608;2022-12-18T23:02:18;9.57;;;4.25;;
22415;SDS011;12204;50.600;4.608;2022-12-18T23:07:22;9.63;;;4.25;;
22415;SDS011;12204;50.600;4.608;2022-12-18T23:12:26;14.75;;;5.05;;
22415;SDS011;12204;50.600;4.608;2022-12-18T23:17:31;10.60;;;4.85;;
22415;SDS011;12204;50.600;4.608;2022-12-18T23:22:35;10.13;;;4.80;;
22415;SDS011;12204;50.600;4.608;2022-12-18T23:27:39;12.20;;;4.88;;
22415;SDS011;12204;50.600;4.608;2022-12-18T23:32:44;13.40;;;5.10;;
22415;SDS011;12204;50.600;4.608;2022-12-18T23:37:47;12.38;;;5.22;;
22415;SDS011;12204;50.600;4.608;2022-12-18T23:43:00;12.52;;;5.05;;
22415;SDS011;12204;50.600;4.608;2022-12-18T23:48:05;11.50;;;5.20;;
22415;SDS011;12204;50.600;4.608;2022-12-18T23:53:09;13.60;;;5.18;;
22415;SDS011;12204;50.600;4.608;2022-12-18T23:58:14;13.55;;;5.55;;
